sensor_id;sensor_type;location;lat;lon;timestamp;P1;durP1;ratioP1;P2;durP2;ratioP2
25419;SDS011;13354;48.174;11.566;2023-12-07T00:00:15;18.00;;;14.35;;
25419;SDS011;13354;48.174;11.566;2023-12-07T00:02:40;18.25;;;13.32;;
25419;SDS011;13354;48.174;11.566;2023-12-07T00:05:06;20.00;;;13.38;;
25419;SDS011;13354;48.174;11.566;2023-12-07T00:07:32;18.88;;;12.45;;
25419;SDS011;13354;48.174;11.566;2023-12-07T00:09:57;19.65;;;14.25;;
25419;SDS011;13354;48.174;11.566;2023-12-07T00:12:22;18.58;;;13.07;;
25419;SDS011;13354;48.174;11.566;2023-12-07T00:14:47;16.48;;;12.65;;
25419;SDS011;13354;48.174;11.566;2023-12-07T00:17:13;16.15;;;12.43;;
25419;SDS011;13354;48.174;11.566;2023-12-07T00:19:39;16.77;;;12.35;;
25419;SDS011;13354;48.174;11.566;2023-12-07T00:22:05;17.83;;;11.90;;
25419;SDS011;13354;48.174;11.566;2023-12-07T00:24:30;16.90;;;12.57;;
25419;SDS011;13354;48.174;11.566;2023-12-07T00:26:55;18.67;;;12.95;;
25419;SDS011;13354;48.174;11.566;2023-12-07T00:29:21;15.52;;;12.10;;
25419;SDS011;13354;48.174;11.566;2023-12-07T00:31:46;27.85;;;19.55;;
25419;SDS011;13354;48.174;11.566;2023-12-07T00:34:12;20.48;;;14.82;;
25419;SDS011;13354;48.174;11.566;2023-12-07T00:36:37;17.35;;;13.30;;
25419;SDS011;13354;48.174;11.566;2023-12-07T00:39:04;16.00;;;11.60;;
25419;SDS011;13354;48.174;11.566;2023-12-07T00:41:29;18.45;;;12.27;;
25419;SDS011;13354;48.174;11.566;2023-12-07T00:43:55;18.63;;;13.27;;
25419;SDS011;13354;48.174;11.566;2023-12-07T00:46:20;15.60;;;12.77;;
25419;SDS011;13354;48.174;11.566;2023-12-07T00:48:45;17.88;;;12.30;;
25419;SDS011;13354;48.174;11.566;2023-12-07T00:51:11;16.92;;;11.93;;
25419;SDS011;13354;48.174;11.566;2023-12-07T00:53:36;16.35;;;12.55;;
25419;SDS011;13354;48.174;11.566;2023-12-07T00:56:02;16.98;;;12.30;;
25419;SDS011;13354;48.174;11.566;2023-12-07T00:58:29;17.25;;;13.00;;
25419;SDS011;13354;48.174;11.566;2023-12-07T01:00:54;17.55;;;12.50;;
25419;SDS011;13354;48.174;11.566;2023-12-07T01:03:20;19.35;;;13.55;;
25419;SDS011;13354;48.174;11.566;2023-12-07T01:05:45;17.33;;;12.63;;
25419;SDS011;13354;48.174;11.566;2023-12-07T01:08:10;18.63;;;12.75;;
25419;SDS011;13354;48.174;11.566;2023-12-07T01:10:36;16.88;;;13.30;;
25419;SDS011;13354;48.174;11.566;2023-12-07T01:13:01;17.13;;;13.00;;
25419;SDS011;13354;48.174;11.566;2023-12-07T01:15:27;17.00;;;13.43;;
25419;SDS011;13354;48.174;11.566;2023-12-07T01:17:52;20.17;;;14.63;;
25419;SDS011;13354;48.174;11.566;2023-12-07T01:20:18;17.13;;;13.30;;
25419;SDS011;13354;48.174;11.566;2023-12-07T01:22:43;19.80;;;15.25;;
25419;SDS011;13354;48.174;11.566;2023-12-07T01:25:10;17.10;;;14.18;;
25419;SDS011;13354;48.174;11.566;2023-12-07T01:27:36;17.42;;;13.63;;
25419;SDS011;13354;48.174;11.566;2023-12-07T01:30:02;17.60;;;13.05;;
25419;SDS011;13354;48.174;11.566;2023-12-07T01:32:28;19.75;;;13.25;;
25419;SDS011;13354;48.174;11.566;2023-12-07T01:34:54;18.98;;;13.77;;
25419;SDS011;13354;48.174;11.566;2023-12-07T01:37:21;18.85;;;14.18;;
25419;SDS011;13354;48.174;11.566;2023-12-07T01:39:46;19.55;;;13.88;;
25419;SDS011;13354;48.174;11.566;2023-12-07T01:42:12;19.88;;;14.48;;
25419;SDS011;13354;48.174;11.566;2023-12-07T01:44:37;20.98;;;15.15;;
25419;SDS011;13354;48.174;11.566;2023-12-07T01:47:04;22.80;;;15.70;;
25419;SDS011;13354;48.174;11.566;2023-12-07T01:49:32;20.35;;;14.75;;
25419;SDS011;13354;48.174;11.566;2023-12-07T01:51:58;20.02;;;15.07;;
25419;SDS011;13354;48.174;11.566;2023-12-07T01:54:24;20.70;;;14.80;;
25419;SDS011;13354;48.174;11.566;2023-12-07T01:56:50;22.63;;;14.77;;
25419;SDS011;13354;48.174;11.566;2023-12-07T01:59:17;20.40;;;14.52;;
25419;SDS011;13354;48.174;11.566;2023-12-07T02:01:42;20.55;;;14.75;;
25419;SDS011;13354;48.174;11.566;2023-12-07T02:04:09;19.98;;;15.07;;
25419;SDS011;13354;48.174;11.566;2023-12-07T02:06:35;19.42;;;15.00;;
25419;SDS011;13354;48.174;11.566;2023-12-07T02:09:00;20.58;;;14.20;;
25419;SDS011;13354;48.174;11.566;2023-12-07T02:11:26;21.00;;;15.38;;
25419;SDS011;13354;48.174;11.566;2023-12-07T02:13:52;20.20;;;15.20;;
25419;SDS011;13354;48.174;11.566;2023-12-07T02:16:53;21.27;;;14.95;;
25419;SDS011;13354;48.174;11.566;2023-12-07T02:22:25;23.08;;;15.73;;
25419;SDS011;13354;48.174;11.566;2023-12-07T02:24:59;20.13;;;15.48;;
25419;SDS011;13354;48.174;11.566;2023-12-07T02:27:37;15.00;;;11.63;;
25419;SDS011;13354;48.174;11.566;2023-12-07T02:30:07;18.70;;;14.35;;
25419;SDS011;13354;48.174;11.566;2023-12-07T02:32:34;19.52;;;14.27;;
25419;SDS011;13354;48.174;11.566;2023-12-07T02:35:01;19.80;;;13.63;;
25419;SDS011;13354;48.174;11.566;2023-12-07T02:37:27;20.45;;;14.68;;
25419;SDS011;13354;48.174;11.566;2023-12-07T02:39:55;20.75;;;14.40;;
25419;SDS011;13354;48.174;11.566;2023-12-07T02:42:22;21.00;;;14.75;;
25419;SDS011;13354;48.174;11.566;2023-12-07T02:44:51;19.75;;;14.50;;
25419;SDS011;13354;48.174;11.566;2023-12-07T02:47:18;19.00;;;14.10;;
25419;SDS011;13354;48.174;11.566;2023-12-07T02:49:43;21.40;;;15.35;;
25419;SDS011;13354;48.174;11.566;2023-12-07T02:52:08;21.90;;;15.10;;
25419;SDS011;13354;48.174;11.566;2023-12-07T02:54:34;19.10;;;14.27;;
25419;SDS011;13354;48.174;11.566;2023-12-07T02:56:59;18.80;;;13.70;;
25419;SDS011;13354;48.174;11.566;2023-12-07T02:59:24;19.55;;;14.52;;
25419;SDS011;13354;48.174;11.566;2023-12-07T03:01:50;19.23;;;13.90;;
25419;SDS011;13354;48.174;11.566;2023-12-07T03:04:15;21.38;;;13.45;;
25419;SDS011;13354;48.174;11.566;2023-12-07T03:06:40;19.75;;;14.23;;
25419;SDS011;13354;48.174;11.566;2023-12-07T03:09:06;21.90;;;14.80;;
25419;SDS011;13354;48.174;11.566;2023-12-07T03:11:31;20.83;;;14.98;;
25419;SDS011;13354;48.174;11.566;2023-12-07T03:13:56;19.90;;;13.80;;
25419;SDS011;13354;48.174;11.566;2023-12-07T03:16:22;20.42;;;14.77;;
25419;SDS011;13354;48.174;11.566;2023-12-07T03:18:47;20.52;;;14.13;;
25419;SDS011;13354;48.174;11.566;2023-12-07T03:21:12;19.75;;;14.68;;
25419;SDS011;13354;48.174;11.566;2023-12-07T03:23:38;19.75;;;13.18;;
25419;SDS011;13354;48.174;11.566;2023-12-07T03:26:03;17.50;;;12.70;;
25419;SDS011;13354;48.174;11.566;2023-12-07T03:28:28;18.35;;;12.95;;
25419;SDS011;13354;48.174;11.566;2023-12-07T03:30:54;17.23;;;13.07;;
25419;SDS011;13354;48.174;11.566;2023-12-07T03:33:19;18.85;;;13.60;;
25419;SDS011;13354;48.174;11.566;2023-12-07T03:35:44;20.02;;;13.50;;
25419;SDS011;13354;48.174;11.566;2023-12-07T03:38:10;21.05;;;13.40;;
25419;SDS011;13354;48.174;11.566;2023-12-07T03:40:35;19.35;;;13.68;;
25419;SDS011;13354;48.174;11.566;2023-12-07T03:43:00;17.63;;;12.80;;
25419;SDS011;13354;48.174;11.566;2023-12-07T03:45:28;15.60;;;12.38;;
25419;SDS011;13354;48.174;11.566;2023-12-07T03:47:53;17.80;;;12.13;;
25419;SDS011;13354;48.174;11.566;2023-12-07T03:50:18;17.70;;;13.07;;
25419;SDS011;13354;48.174;11.566;2023-12-07T03:52:44;20.00;;;12.45;;
25419;SDS011;13354;48.174;11.566;2023-12-07T03:55:09;17.38;;;12.20;;
25419;SDS011;13354;48.174;11.566;2023-12-07T03:57:35;14.88;;;11.68;;
25419;SDS011;13354;48.174;11.566;2023-12-07T04:00:01;17.70;;;12.07;;
25419;SDS011;13354;48.174;11.566;2023-12-07T04:02:29;15.35;;;11.27;;
25419;SDS011;13354;48.174;11.566;2023-12-07T04:04:58;16.58;;;11.90;;
25419;SDS011;13354;48.174;11.566;2023-12-07T04:07:26;14.38;;;11.65;;
25419;SDS011;13354;48.174;11.566;2023-12-07T04:09:52;30.05;;;21.90;;
25419;SDS011;13354;48.174;11.566;2023-12-07T04:12:17;36.85;;;25.65;;
25419;SDS011;13354;48.174;11.566;2023-12-07T04:14:43;28.23;;;20.13;;
25419;SDS011;13354;48.174;11.566;2023-12-07T04:17:08;21.02;;;13.88;;
25419;SDS011;13354;48.174;11.566;2023-12-07T04:19:33;19.13;;;12.00;;
25419;SDS011;13354;48.174;11.566;2023-12-07T04:21:59;16.60;;;12.35;;
25419;SDS011;13354;48.174;11.566;2023-12-07T04:24:24;18.52;;;12.63;;
25419;SDS011;13354;48.174;11.566;2023-12-07T04:26:49;14.02;;;11.38;;
25419;SDS011;13354;48.174;11.566;2023-12-07T04:29:15;15.75;;;11.85;;
25419;SDS011;13354;48.174;11.566;2023-12-07T04:31:40;16.83;;;11.65;;
25419;SDS011;13354;48.174;11.566;2023-12-07T04:34:05;15.90;;;11.50;;
25419;SDS011;13354;48.174;11.566;2023-12-07T04:36:31;16.08;;;12.30;;
25419;SDS011;13354;48.174;11.566;2023-12-07T04:38:56;15.73;;;11.35;;
25419;SDS011;13354;48.174;11.566;2023-12-07T04:41:21;17.27;;;12.10;;
25419;SDS011;13354;48.174;11.566;2023-12-07T04:43:47;16.67;;;12.05;;
25419;SDS011;13354;48.174;11.566;2023-12-07T04:46:12;16.58;;;11.68;;
25419;SDS011;13354;48.174;11.566;2023-12-07T04:48:37;17.90;;;11.98;;
25419;SDS011;13354;48.174;11.566;2023-12-07T04:51:03;15.88;;;12.07;;
25419;SDS011;13354;48.174;11.566;2023-12-07T04:53:28;15.05;;;10.90;;
25419;SDS011;13354;48.174;11.566;2023-12-07T04:55:54;17.95;;;12.48;;
25419;SDS011;13354;48.174;11.566;2023-12-07T04:58:20;19.55;;;12.68;;
25419;SDS011;13354;48.174;11.566;2023-12-07T05:00:45;15.15;;;10.93;;
25419;SDS011;13354;48.174;11.566;2023-12-07T05:03:10;15.02;;;11.07;;
25419;SDS011;13354;48.174;11.566;2023-12-07T05:05:36;16.70;;;11.43;;
25419;SDS011;13354;48.174;11.566;2023-12-07T05:08:01;14.65;;;11.13;;
25419;SDS011;13354;48.174;11.566;2023-12-07T05:10:26;16.23;;;11.10;;
25419;SDS011;13354;48.174;11.566;2023-12-07T05:12:52;16.95;;;12.18;;
25419;SDS011;13354;48.174;11.566;2023-12-07T05:15:17;15.23;;;10.13;;
25419;SDS011;13354;48.174;11.566;2023-12-07T05:17:42;14.77;;;10.60;;
25419;SDS011;13354;48.174;11.566;2023-12-07T05:20:08;13.70;;;10.13;;
25419;SDS011;13354;48.174;11.566;2023-12-07T05:22:33;13.80;;;9.95;;
25419;SDS011;13354;48.174;11.566;2023-12-07T05:24:59;12.55;;;9.60;;
25419;SDS011;13354;48.174;11.566;2023-12-07T05:27:24;13.65;;;9.43;;
25419;SDS011;13354;48.174;11.566;2023-12-07T05:29:50;13.52;;;9.15;;
25419;SDS011;13354;48.174;11.566;2023-12-07T05:32:15;15.52;;;10.68;;
25419;SDS011;13354;48.174;11.566;2023-12-07T05:34:40;14.45;;;10.07;;
25419;SDS011;13354;48.174;11.566;2023-12-07T05:37:06;13.18;;;9.90;;
25419;SDS011;13354;48.174;11.566;2023-12-07T05:39:31;12.13;;;9.45;;
25419;SDS011;13354;48.174;11.566;2023-12-07T05:41:57;27.08;;;21.23;;
25419;SDS011;13354;48.174;11.566;2023-12-07T05:44:22;14.88;;;10.18;;
25419;SDS011;13354;48.174;11.566;2023-12-07T05:46:48;12.57;;;9.73;;
25419;SDS011;13354;48.174;11.566;2023-12-07T05:49:14;12.07;;;8.80;;
25419;SDS011;13354;48.174;11.566;2023-12-07T05:51:39;11.10;;;8.40;;
25419;SDS011;13354;48.174;11.566;2023-12-07T05:54:04;12.38;;;8.73;;
25419;SDS011;13354;48.174;11.566;2023-12-07T05:56:30;10.30;;;8.07;;
25419;SDS011;13354;48.174;11.566;2023-12-07T05:58:56;10.52;;;7.90;;
25419;SDS011;13354;48.174;11.566;2023-12-07T06:01:22;13.48;;;9.13;;
25419;SDS011;13354;48.174;11.566;2023-12-07T06:03:49;10.60;;;8.07;;
25419;SDS011;13354;48.174;11.566;2023-12-07T06:06:15;14.02;;;8.60;;
25419;SDS011;13354;48.174;11.566;2023-12-07T06:08:40;11.93;;;8.20;;
25419;SDS011;13354;48.174;11.566;2023-12-07T06:11:06;11.57;;;8.55;;
25419;SDS011;13354;48.174;11.566;2023-12-07T06:13:32;10.23;;;8.30;;
25419;SDS011;13354;48.174;11.566;2023-12-07T06:15:58;13.68;;;8.77;;
25419;SDS011;13354;48.174;11.566;2023-12-07T06:18:24;12.57;;;7.93;;
25419;SDS011;13354;48.174;11.566;2023-12-07T06:20:49;13.15;;;7.78;;
25419;SDS011;13354;48.174;11.566;2023-12-07T06:23:15;12.75;;;8.18;;
25419;SDS011;13354;48.174;11.566;2023-12-07T06:25:40;15.57;;;11.35;;
25419;SDS011;13354;48.174;11.566;2023-12-07T06:28:06;13.65;;;8.32;;
25419;SDS011;13354;48.174;11.566;2023-12-07T06:30:31;11.98;;;8.02;;
25419;SDS011;13354;48.174;11.566;2023-12-07T06:32:57;12.32;;;7.70;;
25419;SDS011;13354;48.174;11.566;2023-12-07T06:35:22;10.63;;;7.40;;
25419;SDS011;13354;48.174;11.566;2023-12-07T06:37:48;12.15;;;8.13;;
25419;SDS011;13354;48.174;11.566;2023-12-07T06:40:13;13.00;;;7.90;;
25419;SDS011;13354;48.174;11.566;2023-12-07T06:42:39;13.10;;;7.50;;
25419;SDS011;13354;48.174;11.566;2023-12-07T06:45:04;11.35;;;7.30;;
25419;SDS011;13354;48.174;11.566;2023-12-07T06:47:30;12.10;;;7.03;;
25419;SDS011;13354;48.174;11.566;2023-12-07T06:49:56;13.07;;;8.05;;
25419;SDS011;13354;48.174;11.566;2023-12-07T06:52:21;11.55;;;7.13;;
25419;SDS011;13354;48.174;11.566;2023-12-07T06:54:47;10.30;;;6.88;;
25419;SDS011;13354;48.174;11.566;2023-12-07T06:57:12;9.63;;;7.35;;
25419;SDS011;13354;48.174;11.566;2023-12-07T06:59:38;10.40;;;7.90;;
25419;SDS011;13354;48.174;11.566;2023-12-07T07:02:03;12.40;;;7.78;;
25419;SDS011;13354;48.174;11.566;2023-12-07T07:04:29;10.85;;;7.15;;
25419;SDS011;13354;48.174;11.566;2023-12-07T07:06:54;13.07;;;8.00;;
25419;SDS011;13354;48.174;11.566;2023-12-07T07:09:20;10.52;;;7.43;;
25419;SDS011;13354;48.174;11.566;2023-12-07T07:11:48;10.43;;;7.53;;
25419;SDS011;13354;48.174;11.566;2023-12-07T07:14:14;9.98;;;7.80;;
25419;SDS011;13354;48.174;11.566;2023-12-07T07:16:40;11.02;;;7.60;;
25419;SDS011;13354;48.174;11.566;2023-12-07T07:19:06;9.88;;;7.32;;
25419;SDS011;13354;48.174;11.566;2023-12-07T07:21:31;10.75;;;8.23;;
25419;SDS011;13354;48.174;11.566;2023-12-07T07:23:57;12.90;;;7.80;;
25419;SDS011;13354;48.174;11.566;2023-12-07T07:26:22;11.60;;;7.80;;
25419;SDS011;13354;48.174;11.566;2023-12-07T07:28:50;13.30;;;8.02;;
25419;SDS011;13354;48.174;11.566;2023-12-07T07:31:16;9.30;;;7.18;;
25419;SDS011;13354;48.174;11.566;2023-12-07T07:33:42;12.60;;;7.93;;
25419;SDS011;13354;48.174;11.566;2023-12-07T07:36:08;9.45;;;7.30;;
25419;SDS011;13354;48.174;11.566;2023-12-07T07:38:33;11.75;;;7.95;;
25419;SDS011;13354;48.174;11.566;2023-12-07T07:41:00;13.65;;;8.18;;
25419;SDS011;13354;48.174;11.566;2023-12-07T07:43:25;12.02;;;7.68;;
25419;SDS011;13354;48.174;11.566;2023-12-07T07:45:51;9.88;;;7.53;;
25419;SDS011;13354;48.174;11.566;2023-12-07T07:48:16;11.63;;;8.13;;
25419;SDS011;13354;48.174;11.566;2023-12-07T07:50:41;13.20;;;7.93;;
25419;SDS011;13354;48.174;11.566;2023-12-07T07:53:07;12.60;;;7.97;;
25419;SDS011;13354;48.174;11.566;2023-12-07T07:55:32;10.68;;;7.70;;
25419;SDS011;13354;48.174;11.566;2023-12-07T07:57:57;18.38;;;10.63;;
25419;SDS011;13354;48.174;11.566;2023-12-07T08:00:23;14.10;;;8.90;;
25419;SDS011;13354;48.174;11.566;2023-12-07T08:02:51;12.13;;;7.95;;
25419;SDS011;13354;48.174;11.566;2023-12-07T08:05:16;12.98;;;8.00;;
25419;SDS011;13354;48.174;11.566;2023-12-07T08:07:42;11.93;;;8.30;;
25419;SDS011;13354;48.174;11.566;2023-12-07T08:10:07;13.82;;;7.93;;
25419;SDS011;13354;48.174;11.566;2023-12-07T08:12:33;13.75;;;7.60;;
25419;SDS011;13354;48.174;11.566;2023-12-07T08:15:00;10.20;;;6.82;;
25419;SDS011;13354;48.174;11.566;2023-12-07T08:17:25;10.10;;;6.97;;
25419;SDS011;13354;48.174;11.566;2023-12-07T08:19:51;11.90;;;7.10;;
25419;SDS011;13354;48.174;11.566;2023-12-07T08:22:17;12.52;;;7.13;;
25419;SDS011;13354;48.174;11.566;2023-12-07T08:24:42;10.05;;;6.82;;
25419;SDS011;13354;48.174;11.566;2023-12-07T08:27:08;12.38;;;6.65;;
25419;SDS011;13354;48.174;11.566;2023-12-07T08:29:33;12.70;;;9.00;;
25419;SDS011;13354;48.174;11.566;2023-12-07T08:31:59;13.18;;;8.98;;
25419;SDS011;13354;48.174;11.566;2023-12-07T08:34:25;9.05;;;6.55;;
25419;SDS011;13354;48.174;11.566;2023-12-07T08:36:50;10.55;;;6.70;;
25419;SDS011;13354;48.174;11.566;2023-12-07T08:39:15;8.23;;;6.30;;
25419;SDS011;13354;48.174;11.566;2023-12-07T08:41:41;6.63;;;5.43;;
25419;SDS011;13354;48.174;11.566;2023-12-07T08:44:06;8.73;;;5.60;;
25419;SDS011;13354;48.174;11.566;2023-12-07T08:46:32;10.10;;;5.55;;
25419;SDS011;13354;48.174;11.566;2023-12-07T08:48:57;7.18;;;5.55;;
25419;SDS011;13354;48.174;11.566;2023-12-07T08:51:22;7.22;;;5.35;;
25419;SDS011;13354;48.174;11.566;2023-12-07T08:53:49;7.68;;;5.40;;
25419;SDS011;13354;48.174;11.566;2023-12-07T08:56:14;6.85;;;5.65;;
25419;SDS011;13354;48.174;11.566;2023-12-07T08:58:40;7.35;;;5.50;;
25419;SDS011;13354;48.174;11.566;2023-12-07T09:01:06;8.23;;;4.78;;
25419;SDS011;13354;48.174;11.566;2023-12-07T09:03:31;7.72;;;5.43;;
25419;SDS011;13354;48.174;11.566;2023-12-07T09:05:58;8.02;;;5.22;;
25419;SDS011;13354;48.174;11.566;2023-12-07T09:08:24;7.85;;;5.00;;
25419;SDS011;13354;48.174;11.566;2023-12-07T09:10:49;7.10;;;5.70;;
25419;SDS011;13354;48.174;11.566;2023-12-07T09:13:16;9.60;;;5.60;;
25419;SDS011;13354;48.174;11.566;2023-12-07T09:15:42;9.35;;;4.90;;
25419;SDS011;13354;48.174;11.566;2023-12-07T09:18:07;7.90;;;5.47;;
25419;SDS011;13354;48.174;11.566;2023-12-07T09:20:32;10.43;;;5.25;;
25419;SDS011;13354;48.174;11.566;2023-12-07T09:22:58;8.15;;;5.15;;
25419;SDS011;13354;48.174;11.566;2023-12-07T09:25:23;7.55;;;5.07;;
25419;SDS011;13354;48.174;11.566;2023-12-07T09:27:52;9.88;;;5.28;;
25419;SDS011;13354;48.174;11.566;2023-12-07T09:30:18;6.80;;;4.97;;
25419;SDS011;13354;48.174;11.566;2023-12-07T09:32:43;8.10;;;5.15;;
25419;SDS011;13354;48.174;11.566;2023-12-07T09:35:09;6.45;;;5.00;;
25419;SDS011;13354;48.174;11.566;2023-12-07T09:37:44;6.85;;;5.00;;
25419;SDS011;13354;48.174;11.566;2023-12-07T09:40:17;9.38;;;5.90;;
25419;SDS011;13354;48.174;11.566;2023-12-07T09:42:43;7.43;;;4.72;;
25419;SDS011;13354;48.174;11.566;2023-12-07T09:45:09;6.55;;;4.65;;
25419;SDS011;13354;48.174;11.566;2023-12-07T09:47:36;7.05;;;4.78;;
25419;SDS011;13354;48.174;11.566;2023-12-07T09:50:04;4.72;;;3.90;;
25419;SDS011;13354;48.174;11.566;2023-12-07T09:52:31;6.03;;;3.83;;
25419;SDS011;13354;48.174;11.566;2023-12-07T09:54:56;5.07;;;3.45;;
25419;SDS011;13354;48.174;11.566;2023-12-07T09:57:22;6.63;;;3.40;;
25419;SDS011;13354;48.174;11.566;2023-12-07T09:59:48;6.30;;;3.30;;
25419;SDS011;13354;48.174;11.566;2023-12-07T10:02:13;3.72;;;3.10;;
25419;SDS011;13354;48.174;11.566;2023-12-07T10:04:39;4.13;;;2.85;;
25419;SDS011;13354;48.174;11.566;2023-12-07T10:07:05;3.67;;;2.92;;
25419;SDS011;13354;48.174;11.566;2023-12-07T10:09:33;7.55;;;3.38;;
25419;SDS011;13354;48.174;11.566;2023-12-07T10:12:03;4.07;;;3.20;;
25419;SDS011;13354;48.174;11.566;2023-12-07T10:14:29;6.63;;;3.47;;
25419;SDS011;13354;48.174;11.566;2023-12-07T10:16:55;4.40;;;3.45;;
25419;SDS011;13354;48.174;11.566;2023-12-07T10:19:21;5.13;;;3.17;;
25419;SDS011;13354;48.174;11.566;2023-12-07T10:21:48;4.70;;;3.30;;
25419;SDS011;13354;48.174;11.566;2023-12-07T10:24:15;6.55;;;3.55;;
25419;SDS011;13354;48.174;11.566;2023-12-07T10:26:41;7.32;;;3.80;;
25419;SDS011;13354;48.174;11.566;2023-12-07T10:29:08;4.80;;;3.70;;
25419;SDS011;13354;48.174;11.566;2023-12-07T10:31:35;4.65;;;3.00;;
25419;SDS011;13354;48.174;11.566;2023-12-07T10:34:02;4.10;;;3.03;;
25419;SDS011;13354;48.174;11.566;2023-12-07T10:36:27;4.13;;;3.60;;
25419;SDS011;13354;48.174;11.566;2023-12-07T10:38:53;3.85;;;3.13;;
25419;SDS011;13354;48.174;11.566;2023-12-07T10:41:19;5.53;;;3.30;;
25419;SDS011;13354;48.174;11.566;2023-12-07T10:43:48;8.02;;;5.28;;
25419;SDS011;13354;48.174;11.566;2023-12-07T10:46:16;7.57;;;4.60;;
25419;SDS011;13354;48.174;11.566;2023-12-07T10:48:44;4.22;;;2.95;;
25419;SDS011;13354;48.174;11.566;2023-12-07T10:51:13;3.63;;;2.97;;
25419;SDS011;13354;48.174;11.566;2023-12-07T10:53:46;2.72;;;2.13;;
25419;SDS011;13354;48.174;11.566;2023-12-07T10:56:16;3.08;;;2.22;;
25419;SDS011;13354;48.174;11.566;2023-12-07T10:58:53;2.15;;;1.95;;
25419;SDS011;13354;48.174;11.566;2023-12-07T11:01:20;2.20;;;2.00;;
25419;SDS011;13354;48.174;11.566;2023-12-07T11:03:48;4.85;;;2.30;;
25419;SDS011;13354;48.174;11.566;2023-12-07T11:06:15;4.45;;;2.50;;
25419;SDS011;13354;48.174;11.566;2023-12-07T11:08:54;2.63;;;2.17;;
25419;SDS011;13354;48.174;11.566;2023-12-07T11:14:06;2.97;;;2.10;;
25419;SDS011;13354;48.174;11.566;2023-12-07T11:16:36;3.83;;;2.00;;
25419;SDS011;13354;48.174;11.566;2023-12-07T11:21:57;3.03;;;2.03;;
25419;SDS011;13354;48.174;11.566;2023-12-07T11:24:26;2.95;;;2.10;;
25419;SDS011;13354;48.174;11.566;2023-12-07T11:26:52;3.72;;;2.53;;
25419;SDS011;13354;48.174;11.566;2023-12-07T11:29:23;2.95;;;2.35;;
25419;SDS011;13354;48.174;11.566;2023-12-07T11:31:49;2.80;;;2.38;;
25419;SDS011;13354;48.174;11.566;2023-12-07T11:34:33;5.38;;;2.95;;
25419;SDS011;13354;48.174;11.566;2023-12-07T11:36:59;2.90;;;1.77;;
25419;SDS011;13354;48.174;11.566;2023-12-07T11:39:24;5.05;;;3.78;;
25419;SDS011;13354;48.174;11.566;2023-12-07T11:41:53;4.80;;;3.00;;
25419;SDS011;13354;48.174;11.566;2023-12-07T11:44:19;4.85;;;2.60;;
25419;SDS011;13354;48.174;11.566;2023-12-07T11:46:45;2.85;;;2.20;;
25419;SDS011;13354;48.174;11.566;2023-12-07T11:49:10;3.63;;;2.30;;
25419;SDS011;13354;48.174;11.566;2023-12-07T11:51:37;3.45;;;2.22;;
25419;SDS011;13354;48.174;11.566;2023-12-07T11:54:02;3.40;;;2.25;;
25419;SDS011;13354;48.174;11.566;2023-12-07T11:56:28;4.13;;;2.08;;
25419;SDS011;13354;48.174;11.566;2023-12-07T11:58:53;2.75;;;1.98;;
25419;SDS011;13354;48.174;11.566;2023-12-07T12:01:20;4.18;;;2.08;;
25419;SDS011;13354;48.174;11.566;2023-12-07T12:03:47;3.15;;;2.20;;
25419;SDS011;13354;48.174;11.566;2023-12-07T12:06:12;2.20;;;2.00;;
25419;SDS011;13354;48.174;11.566;2023-12-07T12:08:39;3.65;;;2.00;;
25419;SDS011;13354;48.174;11.566;2023-12-07T12:11:05;2.65;;;2.13;;
25419;SDS011;13354;48.174;11.566;2023-12-07T12:13:33;2.70;;;2.00;;
25419;SDS011;13354;48.174;11.566;2023-12-07T12:16:00;2.92;;;2.30;;
25419;SDS011;13354;48.174;11.566;2023-12-07T12:18:26;2.28;;;1.75;;
25419;SDS011;13354;48.174;11.566;2023-12-07T12:20:52;2.25;;;1.90;;
25419;SDS011;13354;48.174;11.566;2023-12-07T12:23:18;3.22;;;2.00;;
25419;SDS011;13354;48.174;11.566;2023-12-07T12:25:44;2.90;;;1.80;;
25419;SDS011;13354;48.174;11.566;2023-12-07T12:28:10;2.10;;;1.75;;
25419;SDS011;13354;48.174;11.566;2023-12-07T12:30:38;2.45;;;2.00;;
25419;SDS011;13354;48.174;11.566;2023-12-07T12:33:03;2.55;;;2.03;;
25419;SDS011;13354;48.174;11.566;2023-12-07T12:35:29;2.55;;;2.33;;
25419;SDS011;13354;48.174;11.566;2023-12-07T12:37:55;3.75;;;2.15;;
25419;SDS011;13354;48.174;11.566;2023-12-07T12:40:21;2.53;;;1.90;;
25419;SDS011;13354;48.174;11.566;2023-12-07T12:42:51;2.92;;;1.98;;
25419;SDS011;13354;48.174;11.566;2023-12-07T12:45:17;2.50;;;1.83;;
25419;SDS011;13354;48.174;11.566;2023-12-07T12:47:44;4.13;;;2.13;;
25419;SDS011;13354;48.174;11.566;2023-12-07T12:50:11;3.60;;;2.17;;
25419;SDS011;13354;48.174;11.566;2023-12-07T12:52:39;2.17;;;1.95;;
25419;SDS011;13354;48.174;11.566;2023-12-07T12:55:08;2.75;;;2.25;;
25419;SDS011;13354;48.174;11.566;2023-12-07T12:57:35;1.80;;;1.70;;
25419;SDS011;13354;48.174;11.566;2023-12-07T13:00:01;8.77;;;3.53;;
25419;SDS011;13354;48.174;11.566;2023-12-07T13:02:27;2.88;;;2.15;;
25419;SDS011;13354;48.174;11.566;2023-12-07T13:04:53;4.38;;;2.10;;
25419;SDS011;13354;48.174;11.566;2023-12-07T13:07:20;2.20;;;1.75;;
25419;SDS011;13354;48.174;11.566;2023-12-07T13:09:46;3.03;;;1.88;;
25419;SDS011;13354;48.174;11.566;2023-12-07T13:12:11;2.67;;;1.90;;
25419;SDS011;13354;48.174;11.566;2023-12-07T13:14:37;2.53;;;1.83;;
25419;SDS011;13354;48.174;11.566;2023-12-07T13:17:04;3.33;;;2.28;;
25419;SDS011;13354;48.174;11.566;2023-12-07T13:19:30;3.75;;;2.20;;
25419;SDS011;13354;48.174;11.566;2023-12-07T13:21:56;3.83;;;2.33;;
25419;SDS011;13354;48.174;11.566;2023-12-07T13:24:22;4.15;;;2.35;;
25419;SDS011;13354;48.174;11.566;2023-12-07T13:26:47;2.92;;;2.53;;
25419;SDS011;13354;48.174;11.566;2023-12-07T13:29:12;3.75;;;2.45;;
25419;SDS011;13354;48.174;11.566;2023-12-07T13:31:38;2.83;;;2.22;;
25419;SDS011;13354;48.174;11.566;2023-12-07T13:34:03;2.33;;;2.03;;
25419;SDS011;13354;48.174;11.566;2023-12-07T13:36:29;2.85;;;2.00;;
25419;SDS011;13354;48.174;11.566;2023-12-07T13:38:56;2.47;;;2.00;;
25419;SDS011;13354;48.174;11.566;2023-12-07T13:41:21;2.78;;;2.22;;
25419;SDS011;13354;48.174;11.566;2023-12-07T13:43:47;2.95;;;2.10;;
25419;SDS011;13354;48.174;11.566;2023-12-07T13:46:18;2.67;;;2.30;;
25419;SDS011;13354;48.174;11.566;2023-12-07T13:48:44;2.55;;;2.10;;
25419;SDS011;13354;48.174;11.566;2023-12-07T13:51:10;5.25;;;2.58;;
25419;SDS011;13354;48.174;11.566;2023-12-07T13:53:35;2.88;;;2.55;;
25419;SDS011;13354;48.174;11.566;2023-12-07T13:56:01;2.67;;;2.47;;
25419;SDS011;13354;48.174;11.566;2023-12-07T13:58:29;2.83;;;2.38;;
25419;SDS011;13354;48.174;11.566;2023-12-07T14:00:54;5.57;;;2.72;;
25419;SDS011;13354;48.174;11.566;2023-12-07T14:03:20;4.18;;;2.90;;
25419;SDS011;13354;48.174;11.566;2023-12-07T14:05:45;4.22;;;2.70;;
25419;SDS011;13354;48.174;11.566;2023-12-07T14:08:11;3.38;;;2.58;;
25419;SDS011;13354;48.174;11.566;2023-12-07T14:10:36;3.67;;;2.80;;
25419;SDS011;13354;48.174;11.566;2023-12-07T14:13:02;4.22;;;3.40;;
25419;SDS011;13354;48.174;11.566;2023-12-07T14:15:27;4.03;;;3.15;;
25419;SDS011;13354;48.174;11.566;2023-12-07T14:17:52;4.70;;;3.65;;
25419;SDS011;13354;48.174;11.566;2023-12-07T14:20:18;5.00;;;3.58;;
25419;SDS011;13354;48.174;11.566;2023-12-07T14:22:46;3.88;;;3.47;;